sensor_id;sensor_type;location;lat;lon;timestamp;pressure;altitude;pressure_sealevel;temperature
64947;BMP280;51469;52.150;4.682;2023-04-15T00:01:18;101100.91;;;14.45
64947;BMP280;51469;52.150;4.682;2023-04-15T00:03:44;101096.94;;;14.42
64947;BMP280;51469;52.150;4.682;2023-04-15T00:06:09;101105.66;;;14.27
64947;BMP280;51469;52.150;4.682;2023-04-15T00:08:34;101084.75;;;14.08
64947;BMP280;51469;52.150;4.682;2023-04-15T00:11:00;101117.03;;;13.94
64947;BMP280;51469;52.150;4.682;2023-04-15T00:13:27;101113.09;;;14.12
64947;BMP280;51469;52.150;4.682;2023-04-15T00:15:52;101104.44;;;14.21
64947;BMP280;51469;52.150;4.682;2023-04-15T00:18:18;101102.88;;;14.20
64947;BMP280;51469;52.150;4.682;2023-04-15T00:20:43;101098.50;;;14.05
64947;BMP280;51469;52.150;4.682;2023-04-15T00:23:08;101112.31;;;14.12
64947;BMP280;51469;52.150;4.682;2023-04-15T00:25:33;101109.97;;;14.10
64947;BMP280;51469;52.150;4.682;2023-04-15T00:27:59;101110.78;;;14.04
64947;BMP280;51469;52.150;4.682;2023-04-15T00:30:24;101107.56;;;13.84
64947;BMP280;51469;52.150;4.682;2023-04-15T00:32:50;101102.84;;;13.85
64947;BMP280;51469;52.150;4.682;2023-04-15T00:35:15;101107.56;;;13.95
64947;BMP280;51469;52.150;4.682;2023-04-15T00:37:41;101098.88;;;13.93
64947;BMP280;51469;52.150;4.682;2023-04-15T00:40:09;101106.78;;;13.94
64947;BMP280;51469;52.150;4.682;2023-04-15T00:42:36;101103.63;;;13.89
64947;BMP280;51469;52.150;4.682;2023-04-15T00:45:02;101109.94;;;13.86
64947;BMP280;51469;52.150;4.682;2023-04-15T00:47:28;101102.84;;;13.85
64947;BMP280;51469;52.150;4.682;2023-04-15T00:49:53;101113.88;;;13.85
64947;BMP280;51469;52.150;4.682;2023-04-15T00:52:19;101108.34;;;13.85
64947;BMP280;51469;52.150;4.682;2023-04-15T00:54:44;101104.41;;;13.72
64947;BMP280;51469;52.150;4.682;2023-04-15T00:57:10;101109.94;;;13.79
64947;BMP280;51469;52.150;4.682;2023-04-15T00:59:35;101105.97;;;13.66
64947;BMP280;51469;52.150;4.682;2023-04-15T01:02:01;101115.78;;;13.60
64947;BMP280;51469;52.150;4.682;2023-04-15T01:04:26;101106.66;;;13.45
64947;BMP280;51469;52.150;4.682;2023-04-15T01:06:51;101111.75;;;13.40
64947;BMP280;51469;52.150;4.682;2023-04-15T01:09:17;101116.88;;;13.38
64947;BMP280;51469;52.150;4.682;2023-04-15T01:11:43;101118.41;;;13.32
64947;BMP280;51469;52.150;4.682;2023-04-15T01:14:08;101112.56;;;13.44
64947;BMP280;51469;52.150;4.682;2023-04-15T01:16:35;101114.56;;;13.47
64947;BMP280;51469;52.150;4.682;2023-04-15T01:19:05;101116.94;;;13.52
64947;BMP280;51469;52.150;4.682;2023-04-15T01:21:31;101111.41;;;13.52
64947;BMP280;51469;52.150;4.682;2023-04-15T01:23:57;101112.97;;;13.53
64947;BMP280;51469;52.150;4.682;2023-04-15T01:26:23;101107.88;;;13.48
64947;BMP280;51469;52.150;4.682;2023-04-15T01:28:49;101114.16;;;13.48
64947;BMP280;51469;52.150;4.682;2023-04-15T01:31:15;101100.75;;;13.43
64947;BMP280;51469;52.150;4.682;2023-04-15T01:33:41;101115.31;;;13.44
64947;BMP280;51469;52.150;4.682;2023-04-15T01:36:08;101109.81;;;13.44
64947;BMP280;51469;52.150;4.682;2023-04-15T01:38:36;101108.25;;;13.43
64947;BMP280;51469;52.150;4.682;2023-04-15T01:41:01;101116.06;;;13.34
64947;BMP280;51469;52.150;4.682;2023-04-15T01:43:29;101110.94;;;13.29
64947;BMP280;51469;52.150;4.682;2023-04-15T01:45:54;101120.00;;;13.33
64947;BMP280;51469;52.150;4.682;2023-04-15T01:48:20;101120.00;;;13.29
64947;BMP280;51469;52.150;4.682;2023-04-15T01:50:46;101124.34;;;13.30
64947;BMP280;51469;52.150;4.682;2023-04-15T01:53:11;101123.88;;;13.25
64947;BMP280;51469;52.150;4.682;2023-04-15T01:55:36;101121.16;;;13.28
64947;BMP280;51469;52.150;4.682;2023-04-15T01:58:02;101111.28;;;13.17
64947;BMP280;51469;52.150;4.682;2023-04-15T02:00:28;101126.25;;;13.19
64947;BMP280;51469;52.150;4.682;2023-04-15T02:02:54;101123.09;;;13.21
64947;BMP280;51469;52.150;4.682;2023-04-15T02:05:20;101129.38;;;13.25
64947;BMP280;51469;52.150;4.682;2023-04-15T02:07:45;101123.06;;;13.14
64947;BMP280;51469;52.150;4.682;2023-04-15T02:10:10;101127.00;;;13.13
64947;BMP280;51469;52.150;4.682;2023-04-15T02:12:40;101123.06;;;13.14
64947;BMP280;51469;52.150;4.682;2023-04-15T02:15:06;101130.13;;;13.08
64947;BMP280;51469;52.150;4.682;2023-04-15T02:17:36;101126.19;;;13.09
64947;BMP280;51469;52.150;4.682;2023-04-15T02:20:02;101139.56;;;13.10
64947;BMP280;51469;52.150;4.682;2023-04-15T02:22:30;101130.16;;;13.15
64947;BMP280;51469;52.150;4.682;2023-04-15T02:24:55;101139.53;;;13.07
64947;BMP280;51469;52.150;4.682;2023-04-15T02:27:20;101139.56;;;13.10
64947;BMP280;51469;52.150;4.682;2023-04-15T02:29:46;101141.91;;;13.12
64947;BMP280;51469;52.150;4.682;2023-04-15T02:32:12;101132.41;;;12.99
64947;BMP280;51469;52.150;4.682;2023-04-15T02:34:39;101148.53;;;12.97
64947;BMP280;51469;52.150;4.682;2023-04-15T02:37:06;101147.38;;;12.98
64947;BMP280;51469;52.150;4.682;2023-04-15T02:39:31;101150.13;;;12.98
64947;BMP280;51469;52.150;4.682;2023-04-15T02:41:57;101148.97;;;13.02
64947;BMP280;51469;52.150;4.682;2023-04-15T02:44:24;101155.28;;;13.03
64947;BMP280;51469;52.150;4.682;2023-04-15T02:46:49;101145.78;;;13.00
64947;BMP280;51469;52.150;4.682;2023-04-15T02:49:17;101156.81;;;13.00
64947;BMP280;51469;52.150;4.682;2023-04-15T02:51:42;101161.94;;;13.02
64947;BMP280;51469;52.150;4.682;2023-04-15T02:54:09;101161.56;;;13.00
64947;BMP280;51469;52.150;4.682;2023-04-15T02:56:34;101168.56;;;12.94
64947;BMP280;51469;52.150;4.682;2023-04-15T02:59:00;101169.38;;;12.91
64947;BMP280;51469;52.150;4.682;2023-04-15T03:01:25;101141.69;;;12.70
64947;BMP280;51469;52.150;4.682;2023-04-15T03:03:51;101168.53;;;12.87
64947;BMP280;51469;52.150;4.682;2023-04-15T03:06:16;101173.19;;;12.79
64947;BMP280;51469;52.150;4.682;2023-04-15T03:08:42;101174.00;;;12.80
64947;BMP280;51469;52.150;4.682;2023-04-15T03:11:07;101179.00;;;12.67
64947;BMP280;51469;52.150;4.682;2023-04-15T03:13:32;101178.22;;;12.67
64947;BMP280;51469;52.150;4.682;2023-04-15T03:15:58;101171.84;;;12.59
64947;BMP280;51469;52.150;4.682;2023-04-15T03:18:23;101173.84;;;12.66
64947;BMP280;51469;52.150;4.682;2023-04-15T03:20:48;101180.97;;;12.67
64947;BMP280;51469;52.150;4.682;2023-04-15T03:23:14;101176.97;;;12.61
64947;BMP280;51469;52.150;4.682;2023-04-15T03:25:39;101182.84;;;12.59
64947;BMP280;51469;52.150;4.682;2023-04-15T03:28:05;101174.22;;;12.61
64947;BMP280;51469;52.150;4.682;2023-04-15T03:30:30;101177.81;;;12.65
64947;BMP280;51469;52.150;4.682;2023-04-15T03:32:56;101187.97;;;12.61
64947;BMP280;51469;52.150;4.682;2023-04-15T03:35:21;101193.06;;;12.52
64947;BMP280;51469;52.150;4.682;2023-04-15T03:37:46;101197.22;;;12.39
64947;BMP280;51469;52.150;4.682;2023-04-15T03:40:13;101194.09;;;12.40
64947;BMP280;51469;52.150;4.682;2023-04-15T03:42:38;101200.44;;;12.48
64947;BMP280;51469;52.150;4.682;2023-04-15T03:45:05;101202.78;;;12.42
64947;BMP280;51469;52.150;4.682;2023-04-15T03:47:31;101191.09;;;12.56
64947;BMP280;51469;52.150;4.682;2023-04-15T03:49:57;101198.19;;;12.57
64947;BMP280;51469;52.150;4.682;2023-04-15T03:52:22;101215.16;;;12.66
64947;BMP280;51469;52.150;4.682;2023-04-15T03:54:47;101206.09;;;12.62
64947;BMP280;51469;52.150;4.682;2023-04-15T03:57:13;101206.41;;;12.53
64947;BMP280;51469;52.150;4.682;2023-04-15T03:59:38;101218.56;;;12.49
64947;BMP280;51469;52.150;4.682;2023-04-15T04:02:03;101216.97;;;12.48
64947;BMP280;51469;52.150;4.682;2023-04-15T04:04:29;101219.41;;;12.56
64947;BMP280;51469;52.150;4.682;2023-04-15T04:06:54;101230.53;;;12.67
64947;BMP280;51469;52.150;4.682;2023-04-15T04:09:19;101214.72;;;12.57
64947;BMP280;51469;52.150;4.682;2023-04-15T04:11:45;101229.75;;;12.70
64947;BMP280;51469;52.150;4.682;2023-04-15T04:14:10;101229.63;;;12.56
64947;BMP280;51469;52.150;4.682;2023-04-15T04:16:36;101232.81;;;12.58
64947;BMP280;51469;52.150;4.682;2023-04-15T04:19:01;101234.41;;;12.62
64947;BMP280;51469;52.150;4.682;2023-04-15T04:21:26;101235.94;;;12.60
64947;BMP280;51469;52.150;4.682;2023-04-15T04:23:52;101234.41;;;12.59
64947;BMP280;51469;52.150;4.682;2023-04-15T04:26:17;101239.06;;;12.55
64947;BMP280;51469;52.150;4.682;2023-04-15T04:28:43;101242.19;;;12.53
64947;BMP280;51469;52.150;4.682;2023-04-15T04:31:09;101239.84;;;12.52
64947;BMP280;51469;52.150;4.682;2023-04-15T04:33:35;101241.34;;;12.49
64947;BMP280;51469;52.150;4.682;2023-04-15T04:36:00;101253.91;;;12.47
64947;BMP280;51469;52.150;4.682;2023-04-15T04:38:25;101253.81;;;12.40
64947;BMP280;51469;52.150;4.682;2023-04-15T04:40:51;101262.09;;;12.40
64947;BMP280;51469;52.150;4.682;2023-04-15T04:43:16;101251.47;;;12.38
64947;BMP280;51469;52.150;4.682;2023-04-15T04:45:42;101257.38;;;12.40
64947;BMP280;51469;52.150;4.682;2023-04-15T04:48:07;101261.19;;;12.29
64947;BMP280;51469;52.150;4.682;2023-04-15T04:50:34;101275.38;;;12.31
64947;BMP280;51469;52.150;4.682;2023-04-15T04:53:00;101267.13;;;12.31
64947;BMP280;51469;52.150;4.682;2023-04-15T04:55:26;101280.47;;;12.29
64947;BMP280;51469;52.150;4.682;2023-04-15T04:57:52;101274.97;;;12.29
64947;BMP280;51469;52.150;4.682;2023-04-15T05:00:17;101289.78;;;12.21
64947;BMP280;51469;52.150;4.682;2023-04-15T05:02:43;101299.28;;;12.27
64947;BMP280;51469;52.150;4.682;2023-04-15T05:05:09;101291.56;;;12.36
64947;BMP280;51469;52.150;4.682;2023-04-15T05:07:36;101301.78;;;12.39
64947;BMP280;51469;52.150;4.682;2023-04-15T05:10:02;101308.59;;;12.15
64947;BMP280;51469;52.150;4.682;2023-04-15T05:12:27;101318.41;;;11.87
64947;BMP280;51469;52.150;4.682;2023-04-15T05:14:53;101320.28;;;12.09
64947;BMP280;51469;52.150;4.682;2023-04-15T05:17:18;101320.88;;;12.25
64947;BMP280;51469;52.150;4.682;2023-04-15T05:19:43;101328.38;;;12.28
64947;BMP280;51469;52.150;4.682;2023-04-15T05:22:09;101333.94;;;12.31
64947;BMP280;51469;52.150;4.682;2023-04-15T05:24:34;101342.41;;;12.16
64947;BMP280;51469;52.150;4.682;2023-04-15T05:27:00;101330.59;;;12.15
64947;BMP280;51469;52.150;4.682;2023-04-15T05:29:26;101338.56;;;12.24
64947;BMP280;51469;52.150;4.682;2023-04-15T05:31:51;101349.06;;;12.48
64947;BMP280;51469;52.150;4.682;2023-04-15T05:34:16;101352.25;;;12.50
64947;BMP280;51469;52.150;4.682;2023-04-15T05:36:42;101350.72;;;12.56
64947;BMP280;51469;52.150;4.682;2023-04-15T05:39:07;101360.25;;;12.62
64947;BMP280;51469;52.150;4.682;2023-04-15T05:41:33;101364.69;;;12.73
64947;BMP280;51469;52.150;4.682;2023-04-15T05:43:58;101386.44;;;12.85
64947;BMP280;51469;52.150;4.682;2023-04-15T05:46:24;101381.63;;;12.79
64947;BMP280;51469;52.150;4.682;2023-04-15T05:48:50;101382.53;;;12.86
64947;BMP280;51469;52.150;4.682;2023-04-15T05:51:16;101385.69;;;12.85
64947;BMP280;51469;52.150;4.682;2023-04-15T05:53:41;101400.34;;;12.96
64947;BMP280;51469;52.150;4.682;2023-04-15T05:56:07;101407.03;;;12.95
64947;BMP280;51469;52.150;4.682;2023-04-15T05:58:32;101403.84;;;12.93
64947;BMP280;51469;52.150;4.682;2023-04-15T06:00:57;101409.34;;;12.93
64947;BMP280;51469;52.150;4.682;2023-04-15T06:03:23;101412.75;;;13.16
64947;BMP280;51469;52.150;4.682;2023-04-15T06:05:48;101428.00;;;13.06
64947;BMP280;51469;52.150;4.682;2023-04-15T06:08:14;101424.06;;;13.07
64947;BMP280;51469;52.150;4.682;2023-04-15T06:10:39;101435.97;;;13.18
64947;BMP280;51469;52.150;4.682;2023-04-15T06:13:04;101429.34;;;13.23
64947;BMP280;51469;52.150;4.682;2023-04-15T06:15:30;101440.38;;;13.23
64947;BMP280;51469;52.150;4.682;2023-04-15T06:17:56;101454.19;;;13.26
64947;BMP280;51469;52.150;4.682;2023-04-15T06:20:21;101455.84;;;13.34
64947;BMP280;51469;52.150;4.682;2023-04-15T06:22:46;101456.69;;;13.42
64947;BMP280;51469;52.150;4.682;2023-04-15T06:25:12;101464.06;;;13.31
64947;BMP280;51469;52.150;4.682;2023-04-15T06:27:38;101475.22;;;13.45
64947;BMP280;51469;52.150;4.682;2023-04-15T06:30:04;101469.13;;;13.69
64947;BMP280;51469;52.150;4.682;2023-04-15T06:32:31;101470.88;;;13.91
64947;BMP280;51469;52.150;4.682;2023-04-15T06:34:56;101472.53;;;14.02
64947;BMP280;51469;52.150;4.682;2023-04-15T06:37:22;101480.88;;;14.09
64947;BMP280;51469;52.150;4.682;2023-04-15T06:39:47;101482.13;;;14.15
64947;BMP280;51469;52.150;4.682;2023-04-15T06:42:13;101491.84;;;13.99
64947;BMP280;51469;52.150;4.682;2023-04-15T06:44:38;101500.13;;;14.06
64947;BMP280;51469;52.150;4.682;2023-04-15T06:47:04;101502.53;;;14.04
64947;BMP280;51469;52.150;4.682;2023-04-15T06:49:30;101503.78;;;13.66
64947;BMP280;51469;52.150;4.682;2023-04-15T06:51:55;101506.50;;;14.10
64947;BMP280;51469;52.150;4.682;2023-04-15T06:54:21;101503.91;;;14.38
64947;BMP280;51469;52.150;4.682;2023-04-15T06:56:46;101502.91;;;14.74
64947;BMP280;51469;52.150;4.682;2023-04-15T06:59:12;101519.03;;;14.65
64947;BMP280;51469;52.150;4.682;2023-04-15T07:01:39;101521.63;;;14.37
64947;BMP280;51469;52.150;4.682;2023-04-15T07:04:05;101516.03;;;14.23
64947;BMP280;51469;52.150;4.682;2023-04-15T07:06:30;101519.50;;;14.81
64947;BMP280;51469;52.150;4.682;2023-04-15T07:08:57;101520.41;;;15.20
64947;BMP280;51469;52.150;4.682;2023-04-15T07:11:22;101525.16;;;15.13
64947;BMP280;51469;52.150;4.682;2023-04-15T07:13:47;101523.50;;;14.94
64947;BMP280;51469;52.150;4.682;2023-04-15T07:16:13;101529.13;;;15.26
64947;BMP280;51469;52.150;4.682;2023-04-15T07:18:38;101533.91;;;15.39
64947;BMP280;51469;52.150;4.682;2023-04-15T07:21:04;101533.13;;;15.60
64947;BMP280;51469;52.150;4.682;2023-04-15T07:23:29;101537.06;;;15.34
64947;BMP280;51469;52.150;4.682;2023-04-15T07:25:55;101540.22;;;15.61
64947;BMP280;51469;52.150;4.682;2023-04-15T07:28:21;101549.34;;;15.68
64947;BMP280;51469;52.150;4.682;2023-04-15T07:30:47;101544.19;;;15.70
64947;BMP280;51469;52.150;4.682;2023-04-15T07:33:13;101560.03;;;15.73
64947;BMP280;51469;52.150;4.682;2023-04-15T07:35:38;101560.81;;;15.91
64947;BMP280;51469;52.150;4.682;2023-04-15T07:38:03;101559.19;;;16.11
64947;BMP280;51469;52.150;4.682;2023-04-15T07:40:29;101569.44;;;16.39
64947;BMP280;51469;52.150;4.682;2023-04-15T07:42:57;101565.06;;;16.55
64947;BMP280;51469;52.150;4.682;2023-04-15T07:45:23;101575.72;;;16.60
64947;BMP280;51469;52.150;4.682;2023-04-15T07:47:49;101582.00;;;16.71
64947;BMP280;51469;52.150;4.682;2023-04-15T07:50:15;101585.69;;;16.30
64947;BMP280;51469;52.150;4.682;2023-04-15T07:52:42;101589.66;;;16.18
64947;BMP280;51469;52.150;4.682;2023-04-15T07:55:08;101596.38;;;15.75
64947;BMP280;51469;52.150;4.682;2023-04-15T07:57:34;101605.06;;;16.37
64947;BMP280;51469;52.150;4.682;2023-04-15T08:00:00;101605.03;;;16.33
64947;BMP280;51469;52.150;4.682;2023-04-15T08:02:27;101570.25;;;16.22
64947;BMP280;51469;52.150;4.682;2023-04-15T08:04:52;101581.31;;;16.46
64947;BMP280;51469;52.150;4.682;2023-04-15T08:07:20;101578.09;;;16.58
64947;BMP280;51469;52.150;4.682;2023-04-15T08:09:46;101620.81;;;16.71
64947;BMP280;51469;52.150;4.682;2023-04-15T08:12:12;101637.34;;;16.99
64947;BMP280;51469;52.150;4.682;2023-04-15T08:14:38;101632.16;;;17.12
64947;BMP280;51469;52.150;4.682;2023-04-15T08:17:04;101637.28;;;17.20
64947;BMP280;51469;52.150;4.682;2023-04-15T08:19:30;101641.91;;;17.37
64947;BMP280;51469;52.150;4.682;2023-04-15T08:21:55;101637.16;;;17.45
64947;BMP280;51469;52.150;4.682;2023-04-15T08:24:21;101635.53;;;17.43
64947;BMP280;51469;52.150;4.682;2023-04-15T08:26:46;101649.84;;;17.35
64947;BMP280;51469;52.150;4.682;2023-04-15T08:29:12;101645.91;;;17.33
64947;BMP280;51469;52.150;4.682;2023-04-15T08:31:37;101650.47;;;17.67
64947;BMP280;51469;52.150;4.682;2023-04-15T08:34:03;101652.13;;;17.50
64947;BMP280;51469;52.150;4.682;2023-04-15T08:36:29;101657.59;;;17.68
64947;BMP280;51469;52.150;4.682;2023-04-15T08:38:54;101674.91;;;17.86
64947;BMP280;51469;52.150;4.682;2023-04-15T08:41:22;101671.88;;;17.63
64947;BMP280;51469;52.150;4.682;2023-04-15T08:43:52;101664.28;;;17.02
64947;BMP280;51469;52.150;4.682;2023-04-15T08:46:19;101675.56;;;17.46
64947;BMP280;51469;52.150;4.682;2023-04-15T08:48:46;101678.91;;;17.81
64947;BMP280;51469;52.150;4.682;2023-04-15T08:51:12;101694.09;;;17.63
64947;BMP280;51469;52.150;4.682;2023-04-15T08:53:41;101697.91;;;17.86
64947;BMP280;51469;52.150;4.682;2023-04-15T08:56:08;101688.97;;;18.12
64947;BMP280;51469;52.150;4.682;2023-04-15T08:58:35;101704.97;;;17.94
64947;BMP280;51469;52.150;4.682;2023-04-15T09:01:00;101710.91;;;18.00
64947;BMP280;51469;52.150;4.682;2023-04-15T09:03:27;101712.16;;;17.92
64947;BMP280;51469;52.150;4.682;2023-04-15T09:05:53;101707.59;;;17.61
64947;BMP280;51469;52.150;4.682;2023-04-15T09:08:18;101713.94;;;17.58
64947;BMP280;51469;52.150;4.682;2023-04-15T09:10:44;101724.97;;;17.72
64947;BMP280;51469;52.150;4.682;2023-04-15T09:13:10;101720.94;;;17.87
64947;BMP280;51469;52.150;4.682;2023-04-15T09:15:37;101723.59;;;18.01
64947;BMP280;51469;52.150;4.682;2023-04-15T09:18:03;101721.63;;;17.98
64947;BMP280;51469;52.150;4.682;2023-04-15T09:20:29;101727.13;;;17.40
64947;BMP280;51469;52.150;4.682;2023-04-15T09:22:54;101737.63;;;17.76
64947;BMP280;51469;52.150;4.682;2023-04-15T09:27:59;101751.25;;;17.50
64947;BMP280;51469;52.150;4.682;2023-04-15T09:30:27;101749.13;;;17.75
64947;BMP280;51469;52.150;4.682;2023-04-15T09:32:55;101746.97;;;18.10
64947;BMP280;51469;52.150;4.682;2023-04-15T09:35:21;101759.41;;;18.43
64947;BMP280;51469;52.150;4.682;2023-04-15T09:37:48;101751.59;;;18.24
64947;BMP280;51469;52.150;4.682;2023-04-15T09:40:14;101761.56;;;18.18
64947;BMP280;51469;52.150;4.682;2023-04-15T09:42:55;101761.78;;;18.41
64947;BMP280;51469;52.150;4.682;2023-04-15T09:45:21;101754.50;;;18.54
64947;BMP280;51469;52.150;4.682;2023-04-15T09:47:47;101758.75;;;18.21
64947;BMP280;51469;52.150;4.682;2023-04-15T09:50:13;101768.47;;;18.47
64947;BMP280;51469;52.150;4.682;2023-04-15T09:52:43;101772.09;;;18.40
64947;BMP280;51469;52.150;4.682;2023-04-15T09:55:09;101764.53;;;18.88
64947;BMP280;51469;52.150;4.682;2023-04-15T09:57:35;101768.97;;;18.38
64947;BMP280;51469;52.150;4.682;2023-04-15T10:00:05;101762.63;;;18.34
64947;BMP280;51469;52.150;4.682;2023-04-15T10:02:33;101788.09;;;18.73
64947;BMP280;51469;52.150;4.682;2023-04-15T10:04:59;101768.59;;;18.77
64947;BMP280;51469;52.150;4.682;2023-04-15T10:07:25;101778.41;;;18.88
64947;BMP280;51469;52.150;4.682;2023-04-15T10:09:51;101787.56;;;18.89
64947;BMP280;51469;52.150;4.682;2023-04-15T10:12:18;101782.81;;;18.86
64947;BMP280;51469;52.150;4.682;2023-04-15T10:14:44;101790.25;;;18.52
64947;BMP280;51469;52.150;4.682;2023-04-15T10:17:12;101789.94;;;18.87
64947;BMP280;51469;52.150;4.682;2023-04-15T10:19:39;101785.97;;;18.44
64947;BMP280;51469;52.150;4.682;2023-04-15T10:22:05;101791.06;;;18.49
64947;BMP280;51469;52.150;4.682;2023-04-15T10:24:31;101786.78;;;18.85
64947;BMP280;51469;52.150;4.682;2023-04-15T10:26:58;101786.69;;;18.95
64947;BMP280;51469;52.150;4.682;2023-04-15T10:29:24;101800.78;;;19.15
64947;BMP280;51469;52.150;4.682;2023-04-15T10:31:54;101799.47;;;19.26
64947;BMP280;51469;52.150;4.682;2023-04-15T10:34:20;101807.69;;;19.00
64947;BMP280;51469;52.150;4.682;2023-04-15T10:36:47;101807.84;;;19.23
64947;BMP280;51469;52.150;4.682;2023-04-15T10:42:15;101802.38;;;19.16
64947;BMP280;51469;52.150;4.682;2023-04-15T10:44:45;101788.97;;;19.04
64947;BMP280;51469;52.150;4.682;2023-04-15T10:47:14;101812.44;;;19.40
64947;BMP280;51469;52.150;4.682;2023-04-15T10:52:14;101800.84;;;19.75
64947;BMP280;51469;52.150;4.682;2023-04-15T10:54:40;101800.78;;;19.15
64947;BMP280;51469;52.150;4.682;2023-04-15T10:57:07;101804.44;;;19.42
64947;BMP280;51469;52.150;4.682;2023-04-15T10:59:59;101814.03;;;19.71
64947;BMP280;51469;52.150;4.682;2023-04-15T11:02:38;101826.31;;;19.06
64947;BMP280;51469;52.150;4.682;2023-04-15T11:05:05;101831.72;;;19.54
64947;BMP280;51469;52.150;4.682;2023-04-15T11:13:02;101823.97;;;20.48
64947;BMP280;51469;52.150;4.682;2023-04-15T11:18:18;101825.69;;;19.89
64947;BMP280;51469;52.150;4.682;2023-04-15T11:23:11;101832.50;;;20.41
64947;BMP280;51469;52.150;4.682;2023-04-15T11:25:36;101841.13;;;19.97
64947;BMP280;51469;52.150;4.682;2023-04-15T11:28:03;101839.84;;;20.28
64947;BMP280;51469;52.150;4.682;2023-04-15T11:30:30;101837.91;;;20.25
64947;BMP280;51469;52.150;4.682;2023-04-15T11:33:01;101855.78;;;20.27
64947;BMP280;51469;52.150;4.682;2023-04-15T11:35:26;101861.53;;;20.17
64947;BMP280;51469;52.150;4.682;2023-04-15T11:37:52;101862.34;;;20.14
64947;BMP280;51469;52.150;4.682;2023-04-15T11:40:24;101872.34;;;20.38
64947;BMP280;51469;52.150;4.682;2023-04-15T11:43:08;101876.09;;;19.68
64947;BMP280;51469;52.150;4.682;2023-04-15T11:45:35;101876.03;;;19.38
64947;BMP280;51469;52.150;4.682;2023-04-15T11:48:20;101889.69;;;19.29
64947;BMP280;51469;52.150;4.682;2023-04-15T11:50:55;101890.28;;;19.47
64947;BMP280;51469;52.150;4.682;2023-04-15T11:53:21;101895.25;;;19.29
64947;BMP280;51469;52.150;4.682;2023-04-15T11:55:49;101885.97;;;19.76
64947;BMP280;51469;52.150;4.682;2023-04-15T12:03:27;101889.47;;;20.10
64947;BMP280;51469;52.150;4.682;2023-04-15T12:06:15;101892.16;;;19.87
64947;BMP280;51469;52.150;4.682;2023-04-15T12:08:51;101892.81;;;19.31
64947;BMP280;51469;52.150;4.682;2023-04-15T12:11:39;101892.63;;;20.12
64947;BMP280;51469;52.150;4.682;2023-04-15T12:14:10;101898.81;;;19.66
64947;BMP280;51469;52.150;4.682;2023-04-15T12:16:46;101899.13;;;20.02
64947;BMP280;51469;52.150;4.682;2023-04-15T12:19:18;101896.28;;;20.62
64947;BMP280;51469;52.150;4.682;2023-04-15T12:21:44;101907.16;;;20.53
64947;BMP280;51469;52.150;4.682;2023-04-15T12:24:11;101904.69;;;20.02
64947;BMP280;51469;52.150;4.682;2023-04-15T12:26:45;101918.34;;;19.96
64947;BMP280;51469;52.150;4.682;2023-04-15T12:29:12;101916.69;;;19.99
64947;BMP280;51469;52.150;4.682;2023-04-15T12:31:47;101936.50;;;20.08
64947;BMP280;51469;52.150;4.682;2023-04-15T12:34:13;101927.19;;;20.71
64947;BMP280;51469;52.150;4.682;2023-04-15T12:36:39;101940.31;;;20.21
64947;BMP280;51469;52.150;4.682;2023-04-15T12:39:05;101938.06;;;20.09
64947;BMP280;51469;52.150;4.682;2023-04-15T12:41:31;101937.28;;;20.35
64947;BMP280;51469;52.150;4.682;2023-04-15T12:43:57;101931.25;;;20.13
64947;BMP280;51469;52.150;4.682;2023-04-15T12:46:23;101941.78;;;20.29
64947;BMP280;51469;52.150;4.682;2023-04-15T12:48:49;101928.31;;;20.24
64947;BMP280;51469;52.150;4.682;2023-04-15T12:51:16;101937.28;;;19.38
64947;BMP280;51469;52.150;4.682;2023-04-15T12:53:41;101950.13;;;19.99
64947;BMP280;51469;52.150;4.682;2023-04-15T12:56:07;101952.38;;;19.77
64947;BMP280;51469;52.150;4.682;2023-04-15T12:58:32;101940.75;;;20.46
64947;BMP280;51469;52.150;4.682;2023-04-15T13:00:58;101958.28;;;20.69
64947;BMP280;51469;52.150;4.682;2023-04-15T13:03:23;101957.56;;;20.39
64947;BMP280;51469;52.150;4.682;2023-04-15T13:05:48;101968.31;;;20.07
64947;BMP280;51469;52.150;4.682;2023-04-15T13:08:14;101970.94;;;19.91
64947;BMP280;51469;52.150;4.682;2023-04-15T13:10:39;101968.28;;;19.77
64947;BMP280;51469;52.150;4.682;2023-04-15T13:13:06;101958.66;;;19.48
64947;BMP280;51469;52.150;4.682;2023-04-15T13:15:32;101975.75;;;19.87
64947;BMP280;51469;52.150;4.682;2023-04-15T13:17:58;101978.22;;;20.41
64947;BMP280;51469;52.150;4.682;2023-04-15T13:20:23;101980.91;;;20.22
64947;BMP280;51469;52.150;4.682;2023-04-15T13:22:51;101982.19;;;20.97
64947;BMP280;51469;52.150;4.682;2023-04-15T13:25:17;101979.03;;;21.18
64947;BMP280;51469;52.150;4.682;2023-04-15T13:27:42;101982.03;;;20.54
64947;BMP280;51469;52.150;4.682;2023-04-15T13:30:08;101965.75;;;20.23
64947;BMP280;51469;52.150;4.682;2023-04-15T13:32:33;101984.38;;;20.56
64947;BMP280;51469;52.150;4.682;2023-04-15T13:34:59;101994.69;;;20.62
64947;BMP280;51469;52.150;4.682;2023-04-15T13:37:28;101986.28;;;20.36
64947;BMP280;51469;52.150;4.682;2023-04-15T13:39:54;101990.63;;;20.07
64947;BMP280;51469;52.150;4.682;2023-04-15T13:42:20;101991.41;;;20.07
64947;BMP280;51469;52.150;4.682;2023-04-15T13:44:46;102001.72;;;20.10
64947;BMP280;51469;52.150;4.682;2023-04-15T13:47:11;102010.47;;;20.12
64947;BMP280;51469;52.150;4.682;2023-04-15T13:49:37;102006.97;;;19.68
64947;BMP280;51469;52.150;4.682;2023-04-15T13:52:02;102021.38;;;19.63
64947;BMP280;51469;52.150;4.682;2023-04-15T13:54:27;102015.94;;;19.86
64947;BMP280;51469;52.150;4.682;2023-04-15T13:56:53;102025.81;;;19.02
64947;BMP280;51469;52.150;4.682;2023-04-15T13:59:20;102022.03;;;19.30
64947;BMP280;51469;52.150;4.682;2023-04-15T14:01:45;102023.00;;;19.09
64947;BMP280;51469;52.150;4.682;2023-04-15T14:04:11;102023.56;;;19.38
64947;BMP280;51469;52.150;4.682;2023-04-15T14:06:36;102026.69;;;19.87
64947;BMP280;51469;52.150;4.682;2023-04-15T14:09:01;102026.25;;;20.26
64947;BMP280;51469;52.150;4.682;2023-04-15T14:11:27;102034.34;;;19.80
64947;BMP280;51469;52.150;4.682;2023-04-15T14:13:54;102032.41;;;19.73
64947;BMP280;51469;52.150;4.682;2023-04-15T14:16:19;102042.41;;;19.64